Terminal Aerodrome Forecast
Issued by NWS Corpus Christi, TX

Home | Current Version | Previous Version | Text Only | Print | Product List | Glossary On
Versions: 1 2 3 4 5 6 7 8 9 10 11 12 13 14 15 16 17
089
FTUS44 KCRP 281129
TAFVCT
TAF
KVCT 281129Z 2812/2912 15011KT 4SM BR BKN015 WS020/18045KT
     FM281500 17014G20KT P6SM BKN025
     FM281900 16019G25KT P6SM OVC050
     FM290100 13015G22KT P6SM OVC020=

USA.gov is the U.S. government's official web portal to all federal, state and local government web resources and services.